sensor_id;sensor_type;location;lat;lon;timestamp;pressure;altitude;pressure_sealevel;temperature;humidity
9525;BME280;15940;48.734;9.112;2022-12-18T00:00:00;97568.09;;;-8.49;82.37
9525;BME280;15940;48.734;9.112;2022-12-18T00:02:27;97578.41;;;-8.24;82.82
9525;BME280;15940;48.734;9.112;2022-12-18T00:04:55;97572.41;;;-8.25;84.09
9525;BME280;15940;48.734;9.112;2022-12-18T00:07:22;97574.94;;;-8.44;83.39
9525;BME280;15940;48.734;9.112;2022-12-18T00:09:49;97582.00;;;-8.48;82.20
9525;BME280;15940;48.734;9.112;2022-12-18T00:12:16;97579.53;;;-8.25;83.89
9525;BME280;15940;48.734;9.112;2022-12-18T00:14:43;97581.34;;;-8.14;82.62
9525;BME280;15940;48.734;9.112;2022-12-18T00:17:10;97579.97;;;-8.39;82.88
9525;BME280;15940;48.734;9.112;2022-12-18T00:19:37;97580.41;;;-8.21;85.43
9525;BME280;15940;48.734;9.112;2022-12-18T00:22:05;97582.09;;;-8.13;84.72
9525;BME280;15940;48.734;9.112;2022-12-18T00:24:32;97577.88;;;-8.02;83.60
9525;BME280;15940;48.734;9.112;2022-12-18T00:26:59;97573.03;;;-8.00;83.54
9525;BME280;15940;48.734;9.112;2022-12-18T00:29:26;97569.38;;;-7.95;84.34
9525;BME280;15940;48.734;9.112;2022-12-18T00:31:53;97571.75;;;-7.90;84.31
9525;BME280;15940;48.734;9.112;2022-12-18T00:34:20;97569.97;;;-8.33;82.85
9525;BME280;15940;48.734;9.112;2022-12-18T00:36:47;97569.88;;;-8.37;83.48
9525;BME280;15940;48.734;9.112;2022-12-18T00:39:16;97582.69;;;-8.20;85.51
9525;BME280;15940;48.734;9.112;2022-12-18T00:41:43;97584.63;;;-8.17;84.19
9525;BME280;15940;48.734;9.112;2022-12-18T00:44:27;97585.72;;;-8.18;84.95
9525;BME280;15940;48.734;9.112;2022-12-18T00:46:54;97584.88;;;-8.22;84.04
9525;BME280;15940;48.734;9.112;2022-12-18T00:49:21;97593.28;;;-8.16;85.03
9525;BME280;15940;48.734;9.112;2022-12-18T00:51:48;97582.28;;;-7.90;85.25
9525;BME280;15940;48.734;9.112;2022-12-18T00:54:17;97584.13;;;-7.75;84.08
9525;BME280;15940;48.734;9.112;2022-12-18T00:56:44;97582.53;;;-7.95;83.49
9525;BME280;15940;48.734;9.112;2022-12-18T00:59:11;97581.94;;;-7.73;84.11
9525;BME280;15940;48.734;9.112;2022-12-18T01:01:38;97588.13;;;-7.65;82.55
9525;BME280;15940;48.734;9.112;2022-12-18T01:04:05;97590.41;;;-7.80;82.36
9525;BME280;15940;48.734;9.112;2022-12-18T01:06:32;97594.41;;;-7.86;82.14
9525;BME280;15940;48.734;9.112;2022-12-18T01:09:00;97585.16;;;-7.95;82.07
9525;BME280;15940;48.734;9.112;2022-12-18T01:11:28;97580.50;;;-7.86;83.53
9525;BME280;15940;48.734;9.112;2022-12-18T01:13:55;97577.94;;;-7.98;82.41
9525;BME280;15940;48.734;9.112;2022-12-18T01:16:22;97574.97;;;-8.13;82.52
9525;BME280;15940;48.734;9.112;2022-12-18T01:18:52;97586.06;;;-8.19;82.89
9525;BME280;15940;48.734;9.112;2022-12-18T01:21:21;97576.16;;;-8.42;82.91
9525;BME280;15940;48.734;9.112;2022-12-18T01:23:52;97571.66;;;-8.41;82.77
9525;BME280;15940;48.734;9.112;2022-12-18T01:26:19;97595.41;;;-8.66;82.83
9525;BME280;15940;48.734;9.112;2022-12-18T01:28:48;97588.63;;;-8.67;84.12
9525;BME280;15940;48.734;9.112;2022-12-18T01:31:19;97584.28;;;-8.47;84.60
9525;BME280;15940;48.734;9.112;2022-12-18T01:33:46;97573.88;;;-8.43;83.26
9525;BME280;15940;48.734;9.112;2022-12-18T01:36:21;97578.75;;;-8.26;84.11
9525;BME280;15940;48.734;9.112;2022-12-18T01:38:49;97588.50;;;-8.26;84.08
9525;BME280;15940;48.734;9.112;2022-12-18T01:41:22;97596.09;;;-8.09;83.05
9525;BME280;15940;48.734;9.112;2022-12-18T01:43:54;97591.16;;;-8.11;83.61
9525;BME280;15940;48.734;9.112;2022-12-18T01:46:25;97591.09;;;-8.14;81.84
9525;BME280;15940;48.734;9.112;2022-12-18T01:48:57;97588.72;;;-8.03;82.97
9525;BME280;15940;48.734;9.112;2022-12-18T01:51:27;97584.81;;;-8.10;82.28
9525;BME280;15940;48.734;9.112;2022-12-18T01:53:57;97583.69;;;-8.09;81.67
9525;BME280;15940;48.734;9.112;2022-12-18T01:56:25;97588.50;;;-8.26;81.81
9525;BME280;15940;48.734;9.112;2022-12-18T01:58:59;97585.47;;;-8.28;82.46
9525;BME280;15940;48.734;9.112;2022-12-18T02:01:29;97589.28;;;-8.26;82.83
9525;BME280;15940;48.734;9.112;2022-12-18T02:04:20;97583.63;;;-8.12;82.32
9525;BME280;15940;48.734;9.112;2022-12-18T02:06:54;97584.72;;;-7.97;82.19
9525;BME280;15940;48.734;9.112;2022-12-18T02:09:28;97586.34;;;-8.09;81.88
9525;BME280;15940;48.734;9.112;2022-12-18T02:12:04;97585.84;;;-7.83;81.29
9525;BME280;15940;48.734;9.112;2022-12-18T02:14:40;97595.59;;;-7.83;80.50
9525;BME280;15940;48.734;9.112;2022-12-18T02:17:13;97591.84;;;-7.82;80.62
9525;BME280;15940;48.734;9.112;2022-12-18T02:19:57;97593.91;;;-7.75;80.83
9525;BME280;15940;48.734;9.112;2022-12-18T02:22:37;97594.22;;;-7.77;80.52
9525;BME280;15940;48.734;9.112;2022-12-18T02:25:21;97575.72;;;-7.65;80.03
9525;BME280;15940;48.734;9.112;2022-12-18T02:27:54;97577.78;;;-7.74;79.59
9525;BME280;15940;48.734;9.112;2022-12-18T02:30:25;97582.84;;;-7.81;79.86
9525;BME280;15940;48.734;9.112;2022-12-18T02:32:54;97593.28;;;-8.00;79.70
9525;BME280;15940;48.734;9.112;2022-12-18T02:35:25;97591.50;;;-7.81;80.59
9525;BME280;15940;48.734;9.112;2022-12-18T02:37:55;97602.31;;;-7.86;79.03
9525;BME280;15940;48.734;9.112;2022-12-18T02:40:24;97601.94;;;-7.84;79.55
9525;BME280;15940;48.734;9.112;2022-12-18T02:42:54;97612.63;;;-7.93;79.35
9525;BME280;15940;48.734;9.112;2022-12-18T02:45:21;97601.34;;;-7.93;79.48
9525;BME280;15940;48.734;9.112;2022-12-18T02:47:49;97603.31;;;-7.74;80.38
9525;BME280;15940;48.734;9.112;2022-12-18T02:50:22;97600.56;;;-7.78;79.50
9525;BME280;15940;48.734;9.112;2022-12-18T02:53:03;97602.91;;;-7.77;79.12
9525;BME280;15940;48.734;9.112;2022-12-18T02:55:45;97602.13;;;-7.93;77.71
9525;BME280;15940;48.734;9.112;2022-12-18T02:58:20;97605.84;;;-8.10;78.74
9525;BME280;15940;48.734;9.112;2022-12-18T03:00:58;97602.63;;;-7.87;79.87
9525;BME280;15940;48.734;9.112;2022-12-18T03:03:33;97599.91;;;-7.75;78.89
9525;BME280;15940;48.734;9.112;2022-12-18T03:06:06;97595.00;;;-7.77;77.74
9525;BME280;15940;48.734;9.112;2022-12-18T03:08:41;97588.72;;;-7.88;78.28
9525;BME280;15940;48.734;9.112;2022-12-18T03:11:11;97598.63;;;-7.97;78.73
9525;BME280;15940;48.734;9.112;2022-12-18T03:13:43;97600.50;;;-7.97;79.30
9525;BME280;15940;48.734;9.112;2022-12-18T03:16:17;97603.22;;;-7.94;79.48
9525;BME280;15940;48.734;9.112;2022-12-18T03:18:51;97610.75;;;-8.08;78.47
9525;BME280;15940;48.734;9.112;2022-12-18T03:21:30;97615.91;;;-8.43;76.56
9525;BME280;15940;48.734;9.112;2022-12-18T03:24:00;97627.03;;;-8.02;81.73
9525;BME280;15940;48.734;9.112;2022-12-18T03:26:29;97621.31;;;-7.77;80.57
9525;BME280;15940;48.734;9.112;2022-12-18T03:29:02;97615.69;;;-7.91;77.79
9525;BME280;15940;48.734;9.112;2022-12-18T03:31:36;97615.75;;;-8.19;78.59
9525;BME280;15940;48.734;9.112;2022-12-18T03:34:11;97615.13;;;-8.44;79.79
9525;BME280;15940;48.734;9.112;2022-12-18T03:36:40;97622.25;;;-8.44;79.52
9525;BME280;15940;48.734;9.112;2022-12-18T03:39:07;97606.91;;;-8.26;80.76
9525;BME280;15940;48.734;9.112;2022-12-18T03:41:39;97611.66;;;-8.48;79.96
9525;BME280;15940;48.734;9.112;2022-12-18T03:44:14;97600.19;;;-8.55;79.62
9525;BME280;15940;48.734;9.112;2022-12-18T03:46:54;97609.88;;;-8.28;80.76
9525;BME280;15940;48.734;9.112;2022-12-18T03:49:28;97606.94;;;-8.42;80.23
9525;BME280;15940;48.734;9.112;2022-12-18T03:52:03;97616.19;;;-8.60;79.33
9525;BME280;15940;48.734;9.112;2022-12-18T03:54:33;97612.81;;;-8.61;79.06
9525;BME280;15940;48.734;9.112;2022-12-18T03:57:06;97612.34;;;-8.63;79.83
9525;BME280;15940;48.734;9.112;2022-12-18T03:59:35;97611.84;;;-8.41;79.92
9525;BME280;15940;48.734;9.112;2022-12-18T04:02:05;97604.53;;;-8.31;80.56
9525;BME280;15940;48.734;9.112;2022-12-18T04:04:34;97602.31;;;-8.45;78.94
9525;BME280;15940;48.734;9.112;2022-12-18T04:07:02;97599.88;;;-8.38;80.07
9525;BME280;15940;48.734;9.112;2022-12-18T04:09:30;97605.91;;;-8.38;79.91
9525;BME280;15940;48.734;9.112;2022-12-18T04:11:59;97601.97;;;-8.44;80.10
9525;BME280;15940;48.734;9.112;2022-12-18T04:14:26;97602.25;;;-8.77;79.58
9525;BME280;15940;48.734;9.112;2022-12-18T04:16:54;97610.03;;;-8.93;81.73
9525;BME280;15940;48.734;9.112;2022-12-18T04:19:21;97610.81;;;-8.92;82.98
9525;BME280;15940;48.734;9.112;2022-12-18T04:21:48;97603.06;;;-8.60;81.16
9525;BME280;15940;48.734;9.112;2022-12-18T04:24:15;97606.81;;;-8.46;82.09
9525;BME280;15940;48.734;9.112;2022-12-18T04:26:42;97604.00;;;-8.53;80.69
9525;BME280;15940;48.734;9.112;2022-12-18T04:29:09;97615.13;;;-8.72;79.91
9525;BME280;15940;48.734;9.112;2022-12-18T04:31:36;97619.81;;;-8.65;81.93
9525;BME280;15940;48.734;9.112;2022-12-18T04:34:05;97637.63;;;-8.58;81.80
9525;BME280;15940;48.734;9.112;2022-12-18T04:36:32;97629.22;;;-8.36;79.95
9525;BME280;15940;48.734;9.112;2022-12-18T04:38:58;97625.72;;;-8.24;81.71
9525;BME280;15940;48.734;9.112;2022-12-18T04:41:26;97625.44;;;-8.79;78.60
9525;BME280;15940;48.734;9.112;2022-12-18T04:43:53;97624.81;;;-9.00;79.41
9525;BME280;15940;48.734;9.112;2022-12-18T04:46:19;97623.06;;;-8.56;82.50
9525;BME280;15940;48.734;9.112;2022-12-18T04:48:47;97624.00;;;-8.76;79.25
9525;BME280;15940;48.734;9.112;2022-12-18T04:51:15;97615.13;;;-9.00;78.61
9525;BME280;15940;48.734;9.112;2022-12-18T04:53:42;97614.78;;;-9.10;78.75
9525;BME280;15940;48.734;9.112;2022-12-18T04:56:12;97607.28;;;-9.48;80.23
9525;BME280;15940;48.734;9.112;2022-12-18T04:58:42;97592.00;;;-9.34;82.66
9525;BME280;15940;48.734;9.112;2022-12-18T05:01:10;97597.06;;;-9.01;82.78
9525;BME280;15940;48.734;9.112;2022-12-18T05:03:37;97591.53;;;-9.24;81.37
9525;BME280;15940;48.734;9.112;2022-12-18T05:06:05;97597.34;;;-9.43;80.34
9525;BME280;15940;48.734;9.112;2022-12-18T05:08:34;97595.84;;;-9.44;81.13
9525;BME280;15940;48.734;9.112;2022-12-18T05:11:03;97602.28;;;-9.66;80.09
9525;BME280;15940;48.734;9.112;2022-12-18T05:13:31;97600.88;;;-9.63;81.79
9525;BME280;15940;48.734;9.112;2022-12-18T05:15:58;97609.34;;;-9.30;84.24
9525;BME280;15940;48.734;9.112;2022-12-18T05:18:26;97612.16;;;-9.10;81.83
9525;BME280;15940;48.734;9.112;2022-12-18T05:20:54;97618.72;;;-9.04;82.90
9525;BME280;15940;48.734;9.112;2022-12-18T05:23:22;97610.41;;;-9.06;83.01
9525;BME280;15940;48.734;9.112;2022-12-18T05:25:54;97606.44;;;-8.88;80.38
9525;BME280;15940;48.734;9.112;2022-12-18T05:28:22;97616.66;;;-9.11;80.88
9525;BME280;15940;48.734;9.112;2022-12-18T05:30:51;97602.53;;;-9.06;80.66
9525;BME280;15940;48.734;9.112;2022-12-18T05:33:19;97616.25;;;-9.25;79.48
9525;BME280;15940;48.734;9.112;2022-12-18T05:35:50;97631.00;;;-9.33;79.81
9525;BME280;15940;48.734;9.112;2022-12-18T05:38:18;97628.88;;;-9.03;81.17
9525;BME280;15940;48.734;9.112;2022-12-18T05:40:45;97637.50;;;-8.90;80.24
9525;BME280;15940;48.734;9.112;2022-12-18T05:43:13;97632.38;;;-8.99;80.23
9525;BME280;15940;48.734;9.112;2022-12-18T05:45:41;97627.47;;;-9.12;78.57
9525;BME280;15940;48.734;9.112;2022-12-18T05:48:13;97621.81;;;-9.27;81.50
9525;BME280;15940;48.734;9.112;2022-12-18T05:50:42;97618.84;;;-9.13;80.54
9525;BME280;15940;48.734;9.112;2022-12-18T05:53:12;97624.63;;;-9.07;80.22
9525;BME280;15940;48.734;9.112;2022-12-18T05:55:40;97609.78;;;-8.75;79.47
9525;BME280;15940;48.734;9.112;2022-12-18T05:58:10;97609.69;;;-8.79;78.61
9525;BME280;15940;48.734;9.112;2022-12-18T06:00:43;97614.06;;;-8.83;79.35
9525;BME280;15940;48.734;9.112;2022-12-18T06:03:13;97617.91;;;-8.80;78.14
9525;BME280;15940;48.734;9.112;2022-12-18T06:05:42;97614.31;;;-8.88;77.53
9525;BME280;15940;48.734;9.112;2022-12-18T06:08:10;97620.38;;;-9.12;76.27
9525;BME280;15940;48.734;9.112;2022-12-18T06:10:37;97639.31;;;-9.18;77.43
9525;BME280;15940;48.734;9.112;2022-12-18T06:13:05;97633.59;;;-9.21;78.47
9525;BME280;15940;48.734;9.112;2022-12-18T06:15:32;97632.78;;;-8.84;78.26
9525;BME280;15940;48.734;9.112;2022-12-18T06:18:02;97637.25;;;-8.85;76.67
9525;BME280;15940;48.734;9.112;2022-12-18T06:20:29;97634.56;;;-9.01;76.82
9525;BME280;15940;48.734;9.112;2022-12-18T06:22:56;97636.00;;;-9.03;76.34
9525;BME280;15940;48.734;9.112;2022-12-18T06:25:23;97647.28;;;-9.39;75.19
9525;BME280;15940;48.734;9.112;2022-12-18T06:27:50;97652.41;;;-9.67;76.74
9525;BME280;15940;48.734;9.112;2022-12-18T06:30:17;97644.13;;;-9.57;78.90
9525;BME280;15940;48.734;9.112;2022-12-18T06:32:44;97643.34;;;-9.58;78.04
9525;BME280;15940;48.734;9.112;2022-12-18T06:35:12;97642.50;;;-9.62;79.61
9525;BME280;15940;48.734;9.112;2022-12-18T06:37:39;97647.41;;;-9.48;80.41
9525;BME280;15940;48.734;9.112;2022-12-18T06:40:07;97651.06;;;-8.88;80.12
9525;BME280;15940;48.734;9.112;2022-12-18T06:42:34;97649.78;;;-9.06;79.16
9525;BME280;15940;48.734;9.112;2022-12-18T06:45:01;97647.81;;;-8.97;79.90
9525;BME280;15940;48.734;9.112;2022-12-18T06:47:28;97655.03;;;-9.31;78.18
9525;BME280;15940;48.734;9.112;2022-12-18T06:49:55;97651.19;;;-8.97;81.74
9525;BME280;15940;48.734;9.112;2022-12-18T06:52:23;97644.53;;;-8.66;79.46
9525;BME280;15940;48.734;9.112;2022-12-18T06:54:50;97636.47;;;-8.45;78.01
9525;BME280;15940;48.734;9.112;2022-12-18T06:57:17;97650.50;;;-8.53;77.78
9525;BME280;15940;48.734;9.112;2022-12-18T06:59:44;97649.53;;;-8.49;77.69
9525;BME280;15940;48.734;9.112;2022-12-18T07:02:11;97645.56;;;-8.83;77.70
9525;BME280;15940;48.734;9.112;2022-12-18T07:04:39;97659.75;;;-8.59;79.90
9525;BME280;15940;48.734;9.112;2022-12-18T07:07:06;97670.44;;;-8.52;78.36
9525;BME280;15940;48.734;9.112;2022-12-18T07:09:35;97667.19;;;-8.74;77.64
9525;BME280;15940;48.734;9.112;2022-12-18T07:12:02;97677.56;;;-9.05;78.54
9525;BME280;15940;48.734;9.112;2022-12-18T07:14:30;97677.56;;;-9.30;79.69
9525;BME280;15940;48.734;9.112;2022-12-18T07:16:57;97679.31;;;-9.46;80.57
9525;BME280;15940;48.734;9.112;2022-12-18T07:19:24;97679.00;;;-9.57;82.64
9525;BME280;15940;48.734;9.112;2022-12-18T07:21:51;97679.28;;;-9.58;82.45
9525;BME280;15940;48.734;9.112;2022-12-18T07:24:18;97687.16;;;-8.97;83.24
9525;BME280;15940;48.734;9.112;2022-12-18T07:26:47;97684.47;;;-8.60;83.13
9525;BME280;15940;48.734;9.112;2022-12-18T07:29:14;97684.97;;;-8.95;82.34
9525;BME280;15940;48.734;9.112;2022-12-18T07:31:41;97682.13;;;-9.02;82.17
9525;BME280;15940;48.734;9.112;2022-12-18T07:34:10;97680.72;;;-9.00;82.60
9525;BME280;15940;48.734;9.112;2022-12-18T07:36:38;97690.03;;;-9.14;83.27
9525;BME280;15940;48.734;9.112;2022-12-18T07:39:05;97693.06;;;-8.88;86.17
9525;BME280;15940;48.734;9.112;2022-12-18T07:41:32;97690.31;;;-8.79;84.99
9525;BME280;15940;48.734;9.112;2022-12-18T07:44:01;97690.19;;;-8.83;84.68
9525;BME280;15940;48.734;9.112;2022-12-18T07:46:28;97679.19;;;-8.88;84.07
9525;BME280;15940;48.734;9.112;2022-12-18T07:48:55;97693.91;;;-8.84;84.39
9525;BME280;15940;48.734;9.112;2022-12-18T07:51:22;97690.31;;;-8.79;85.84
9525;BME280;15940;48.734;9.112;2022-12-18T07:53:49;97699.81;;;-8.75;85.51
9525;BME280;15940;48.734;9.112;2022-12-18T07:56:15;97694.72;;;-8.43;87.67
9525;BME280;15940;48.734;9.112;2022-12-18T07:58:42;97699.97;;;-8.27;85.92
9525;BME280;15940;48.734;9.112;2022-12-18T08:01:12;97688.72;;;-8.28;84.94
9525;BME280;15940;48.734;9.112;2022-12-18T08:03:40;97701.28;;;-8.21;85.49
9525;BME280;15940;48.734;9.112;2022-12-18T08:06:09;97692.84;;;-7.99;84.87
9525;BME280;15940;48.734;9.112;2022-12-18T08:08:36;97694.34;;;-7.86;84.06
9525;BME280;15940;48.734;9.112;2022-12-18T08:11:03;97693.31;;;-7.81;83.49
9525;BME280;15940;48.734;9.112;2022-12-18T08:13:30;97695.66;;;-7.92;83.68
9525;BME280;15940;48.734;9.112;2022-12-18T08:15:59;97698.09;;;-7.99;83.05
9525;BME280;15940;48.734;9.112;2022-12-18T08:18:28;97702.06;;;-7.61;83.84
9525;BME280;15940;48.734;9.112;2022-12-18T08:20:55;97696.06;;;-7.46;81.85
9525;BME280;15940;48.734;9.112;2022-12-18T08:23:22;97702.25;;;-7.38;81.46
9525;BME280;15940;48.734;9.112;2022-12-18T08:25:49;97700.69;;;-7.39;80.61
9525;BME280;15940;48.734;9.112;2022-12-18T08:28:17;97698.19;;;-7.36;81.55
9525;BME280;15940;48.734;9.112;2022-12-18T08:30:44;97697.56;;;-7.45;80.42
9525;BME280;15940;48.734;9.112;2022-12-18T08:33:12;97707.75;;;-7.43;81.30
9525;BME280;15940;48.734;9.112;2022-12-18T08:35:40;97700.13;;;-7.33;79.96
9525;BME280;15940;48.734;9.112;2022-12-18T08:38:07;97700.69;;;-7.39;80.79
9525;BME280;15940;48.734;9.112;2022-12-18T08:40:34;97699.97;;;-7.56;81.52
9525;BME280;15940;48.734;9.112;2022-12-18T08:43:01;97702.25;;;-7.38;82.31
9525;BME280;15940;48.734;9.112;2022-12-18T08:45:45;97692.97;;;-7.16;81.80
9525;BME280;15940;48.734;9.112;2022-12-18T08:48:12;97693.25;;;-6.86;82.36
9525;BME280;15940;48.734;9.112;2022-12-18T08:50:41;97697.06;;;-6.84;80.40
9525;BME280;15940;48.734;9.112;2022-12-18T08:53:08;97707.25;;;-6.82;80.33
9525;BME280;15940;48.734;9.112;2022-12-18T08:55:35;97697.06;;;-6.84;82.39
9525;BME280;15940;48.734;9.112;2022-12-18T08:58:02;97698.34;;;-6.78;79.16
9525;BME280;15940;48.734;9.112;2022-12-18T09:00:29;97692.88;;;-6.69;78.75
9525;BME280;15940;48.734;9.112;2022-12-18T09:02:56;97695.31;;;-6.60;78.47
9525;BME280;15940;48.734;9.112;2022-12-18T09:05:23;97687.63;;;-6.69;78.66
9525;BME280;15940;48.734;9.112;2022-12-18T09:07:51;97683.81;;;-6.52;80.84
9525;BME280;15940;48.734;9.112;2022-12-18T09:10:18;97686.03;;;-6.35;79.23
9525;BME280;15940;48.734;9.112;2022-12-18T09:12:45;97682.97;;;-6.18;80.20
9525;BME280;15940;48.734;9.112;2022-12-18T09:15:12;97684.97;;;-5.92;79.26
9525;BME280;15940;48.734;9.112;2022-12-18T09:17:39;97688.38;;;-5.91;77.54
9525;BME280;15940;48.734;9.112;2022-12-18T09:20:07;97681.03;;;-6.01;77.47
9525;BME280;15940;48.734;9.112;2022-12-18T09:22:34;97674.16;;;-6.06;78.14
9525;BME280;15940;48.734;9.112;2022-12-18T09:25:03;97680.41;;;-5.95;79.78
9525;BME280;15940;48.734;9.112;2022-12-18T09:27:33;97663.81;;;-5.95;79.34
9525;BME280;15940;48.734;9.112;2022-12-18T09:30:00;97673.97;;;-5.71;79.18
9525;BME280;15940;48.734;9.112;2022-12-18T09:32:27;97666.91;;;-5.67;79.73
9525;BME280;15940;48.734;9.112;2022-12-18T09:34:54;97669.66;;;-5.37;79.21
9525;BME280;15940;48.734;9.112;2022-12-18T09:37:21;97672.28;;;-5.37;78.27
9525;BME280;15940;48.734;9.112;2022-12-18T09:39:48;97673.50;;;-5.31;78.66
9525;BME280;15940;48.734;9.112;2022-12-18T09:42:21;97685.59;;;-5.30;78.05
9525;BME280;15940;48.734;9.112;2022-12-18T09:44:51;97683.94;;;-5.15;78.14
9525;BME280;15940;48.734;9.112;2022-12-18T09:47:23;97679.00;;;-4.90;77.62
9525;BME280;15940;48.734;9.112;2022-12-18T09:49:56;97668.69;;;-4.72;77.03
9525;BME280;15940;48.734;9.112;2022-12-18T09:52:28;97669.97;;;-4.59;76.74
9525;BME280;15940;48.734;9.112;2022-12-18T09:55:00;97674.72;;;-4.72;75.03
9525;BME280;15940;48.734;9.112;2022-12-18T09:57:32;97651.97;;;-4.50;75.57
9525;BME280;15940;48.734;9.112;2022-12-18T10:00:06;97664.81;;;-4.78;75.97
9525;BME280;15940;48.734;9.112;2022-12-18T10:02:36;97669.25;;;-4.86;75.85
9525;BME280;15940;48.734;9.112;2022-12-18T10:05:10;97671.72;;;-4.70;76.39
9525;BME280;15940;48.734;9.112;2022-12-18T10:07:49;97666.44;;;-4.40;75.87
9525;BME280;15940;48.734;9.112;2022-12-18T10:10:30;97671.56;;;-4.54;76.18
9525;BME280;15940;48.734;9.112;2022-12-18T10:13:09;97674.00;;;-4.39;76.76
9525;BME280;15940;48.734;9.112;2022-12-18T10:15:45;97681.78;;;-4.53;76.30
9525;BME280;15940;48.734;9.112;2022-12-18T10:18:28;97685.31;;;-4.42;76.78
9525;BME280;15940;48.734;9.112;2022-12-18T10:21:05;97673.09;;;-4.50;76.69
9525;BME280;15940;48.734;9.112;2022-12-18T10:23:41;97678.88;;;-4.41;77.37
9525;BME280;15940;48.734;9.112;2022-12-18T10:26:11;97675.88;;;-4.39;75.55
9525;BME280;15940;48.734;9.112;2022-12-18T10:28:40;97680.59;;;-4.25;76.28
9525;BME280;15940;48.734;9.112;2022-12-18T10:31:12;97679.88;;;-4.19;75.87
9525;BME280;15940;48.734;9.112;2022-12-18T10:33:41;97676.56;;;-4.12;75.14
9525;BME280;15940;48.734;9.112;2022-12-18T10:36:08;97681.28;;;-4.28;75.65
9525;BME280;15940;48.734;9.112;2022-12-18T10:38:36;97683.50;;;-4.34;77.27
9525;BME280;15940;48.734;9.112;2022-12-18T10:41:05;97683.44;;;-4.38;76.91
9525;BME280;15940;48.734;9.112;2022-12-18T10:43:37;97683.88;;;-4.36;76.85
9525;BME280;15940;48.734;9.112;2022-12-18T10:46:14;97669.44;;;-4.42;77.35
9525;BME280;15940;48.734;9.112;2022-12-18T10:48:52;97676.00;;;-4.28;76.57
9525;BME280;15940;48.734;9.112;2022-12-18T10:51:23;97670.66;;;-4.36;77.66
9525;BME280;15940;48.734;9.112;2022-12-18T10:53:56;97679.28;;;-4.39;77.78
9525;BME280;15940;48.734;9.112;2022-12-18T10:56:27;97680.88;;;-4.34;77.33
9525;BME280;15940;48.734;9.112;2022-12-18T10:59:00;97683.41;;;-4.41;78.04
9525;BME280;15940;48.734;9.112;2022-12-18T11:01:46;97680.09;;;-4.35;77.84
9525;BME280;15940;48.734;9.112;2022-12-18T11:04:19;97674.84;;;-4.31;78.54
9525;BME280;15940;48.734;9.112;2022-12-18T11:06:56;97674.00;;;-4.39;77.31
9525;BME280;15940;48.734;9.112;2022-12-18T11:09:25;97669.06;;;-4.40;78.06
9525;BME280;15940;48.734;9.112;2022-12-18T11:11:54;97667.94;;;-4.39;77.40
9525;BME280;15940;48.734;9.112;2022-12-18T11:14:24;97651.88;;;-4.23;77.88
9525;BME280;15940;48.734;9.112;2022-12-18T11:16:54;97654.28;;;-4.11;77.29
9525;BME280;15940;48.734;9.112;2022-12-18T11:19:31;97657.31;;;-4.09;77.59
9525;BME280;15940;48.734;9.112;2022-12-18T11:22:00;97645.75;;;-3.94;78.33
9525;BME280;15940;48.734;9.112;2022-12-18T11:24:31;97653.78;;;-3.87;75.63
9525;BME280;15940;48.734;9.112;2022-12-18T11:27:03;97652.88;;;-3.98;76.44
9525;BME280;15940;48.734;9.112;2022-12-18T11:29:37;97650.66;;;-3.96;76.27
9525;BME280;15940;48.734;9.112;2022-12-18T11:32:32;97648.38;;;-3.97;76.63
9525;BME280;15940;48.734;9.112;2022-12-18T11:35:11;97640.75;;;-4.03;76.72
9525;BME280;15940;48.734;9.112;2022-12-18T11:37:53;97647.28;;;-3.93;76.54
9525;BME280;15940;48.734;9.112;2022-12-18T11:40:27;97640.38;;;-4.05;77.48
9525;BME280;15940;48.734;9.112;2022-12-18T11:43:04;97639.38;;;-3.89;76.93
9525;BME280;15940;48.734;9.112;2022-12-18T11:45:35;97635.19;;;-3.94;77.12
9525;BME280;15940;48.734;9.112;2022-12-18T11:48:15;97626.56;;;-3.84;79.38
9525;BME280;15940;48.734;9.112;2022-12-18T11:50:49;97634.31;;;-3.61;77.49
9525;BME280;15940;48.734;9.112;2022-12-18T11:53:17;97631.44;;;-3.45;76.65
9525;BME280;15940;48.734;9.112;2022-12-18T11:56:00;97634.75;;;-3.55;76.38
9525;BME280;15940;48.734;9.112;2022-12-18T11:58:46;97630.38;;;-3.33;77.43
9525;BME280;15940;48.734;9.112;2022-12-18T12:01:32;97620.69;;;-3.11;75.85
9525;BME280;15940;48.734;9.112;2022-12-18T12:04:31;97621.47;;;-3.07;74.80
9525;BME280;15940;48.734;9.112;2022-12-18T12:07:16;97612.75;;;-3.11;74.75
9525;BME280;15940;48.734;9.112;2022-12-18T12:09:53;97615.69;;;-3.24;75.45
9525;BME280;15940;48.734;9.112;2022-12-18T12:12:36;97611.66;;;-3.00;75.57
9525;BME280;15940;48.734;9.112;2022-12-18T12:15:23;97623.03;;;-2.99;75.11
9525;BME280;15940;48.734;9.112;2022-12-18T12:18:00;97610.88;;;-3.04;75.71
9525;BME280;15940;48.734;9.112;2022-12-18T12:20:44;97605.19;;;-3.06;75.97
9525;BME280;15940;48.734;9.112;2022-12-18T12:23:20;97612.44;;;-2.99;74.27
9525;BME280;15940;48.734;9.112;2022-12-18T12:25:56;97604.81;;;-3.08;74.94
9525;BME280;15940;48.734;9.112;2022-12-18T12:28:48;97611.19;;;-3.20;75.37
9525;BME280;15940;48.734;9.112;2022-12-18T12:31:27;97607.50;;;-2.97;75.50
9525;BME280;15940;48.734;9.112;2022-12-18T12:34:08;97603.34;;;-2.98;74.45
9525;BME280;15940;48.734;9.112;2022-12-18T12:36:54;97607.50;;;-2.97;74.60
9525;BME280;15940;48.734;9.112;2022-12-18T12:39:30;97611.00;;;-2.82;74.17
9525;BME280;15940;48.734;9.112;2022-12-18T12:41:58;97624.28;;;-2.75;73.67
9525;BME280;15940;48.734;9.112;2022-12-18T12:44:47;97605.41;;;-2.63;73.46
9525;BME280;15940;48.734;9.112;2022-12-18T12:47:18;97614.13;;;-2.63;73.10
9525;BME280;15940;48.734;9.112;2022-12-18T12:49:48;97612.19;;;-2.69;74.16
9525;BME280;15940;48.734;9.112;2022-12-18T12:52:30;97616.47;;;-2.40;73.56
9525;BME280;15940;48.734;9.112;2022-12-18T12:54:59;97623.63;;;-2.51;73.48
9525;BME280;15940;48.734;9.112;2022-12-18T12:57:34;97622.56;;;-2.36;72.33
9525;BME280;15940;48.734;9.112;2022-12-18T13:00:08;97625.91;;;-2.49;72.97
9525;BME280;15940;48.734;9.112;2022-12-18T13:02:43;97623.63;;;-2.51;72.53
9525;BME280;15940;48.734;9.112;2022-12-18T13:05:19;97626.66;;;-2.52;74.45
9525;BME280;15940;48.734;9.112;2022-12-18T13:07:54;97635.84;;;-2.32;75.16
9525;BME280;15940;48.734;9.112;2022-12-18T13:10:35;97633.91;;;-2.42;72.62
9525;BME280;15940;48.734;9.112;2022-12-18T13:13:05;97633.59;;;-2.23;72.55
9525;BME280;15940;48.734;9.112;2022-12-18T13:15:37;97632.06;;;-2.24;71.68
9525;BME280;15940;48.734;9.112;2022-12-18T13:18:23;97636.25;;;-2.19;73.84
9525;BME280;15940;48.734;9.112;2022-12-18T13:21:03;97632.88;;;-2.02;74.18
9525;BME280;15940;48.734;9.112;2022-12-18T13:23:38;97638.56;;;-2.04;72.51
9525;BME280;15940;48.734;9.112;2022-12-18T13:26:30;97630.25;;;-1.95;72.37
9525;BME280;15940;48.734;9.112;2022-12-18T13:28:59;97619.22;;;-2.08;71.99